Time;durP1;ratioP1;P1;durP2;ratioP2;P2;SDS_P1;SDS_P2;PMS_P1;PMS_P2;Temp;Humidity;BMP_temperature;BMP_pressure;BME280_temperature;BME280_humidity;BME280_pressure;Samples;Min_cycle;Max_cycle;Signal;HPM_P1;HPM_P2
2022/12/30 00:01:21;;;;;;;12.4;6.9;;;;;;;;;;;;;
2022/12/30 00:03:47;;;;;;;12.2;7.5;;;;;;;;;;;;;
2022/12/30 00:06:16;;;;;;;11.7;6.7;;;;;;;;;;;;;
2022/12/30 00:08:50;;;;;;;9.9;5.8;;;;;;;;;;;;;
2022/12/30 00:11:16;;;;;;;8.3;5.6;;;;;;;;;;;;;
2022/12/30 00:33:56;;;;;;;8.9;5.5;;;;;;;;;;;;;
2022/12/30 00:36:21;;;;;;;9.4;5.8;;;;;;;;;;;;;
2022/12/30 00:38:46;;;;;;;9.8;5.7;;;;;;;;;;;;;
2022/12/30 00:43:36;;;;;;;8.7;5.3;;;;;;;;;;;;;
2022/12/30 00:46:01;;;;;;;8.1;5.6;;;;;;;;;;;;;
2022/12/30 00:58:07;;;;;;;7.9;4.7;;;;;;;;;;;;;
2022/12/30 01:00:33;;;;;;;5.9;4.1;;;;;;;;;;;;;
2022/12/30 01:02:58;;;;;;;7.3;4.4;;;;;;;;;;;;;
2022/12/30 01:05:26;;;;;;;5.1;3.5;;;;;;;;;;;;;
2022/12/30 01:07:51;;;;;;;4.9;3.3;;;;;;;;;;;;;
2022/12/30 01:10:17;;;;;;;4;3;;;;;;;;;;;;;
2022/12/30 01:12:42;;;;;;;5;3;;;;;;;;;;;;;
2022/12/30 01:15:08;;;;;;;3.4;2.6;;;;;;;;;;;;;
2022/12/30 01:17:33;;;;;;;3.9;2.6;;;;;;;;;;;;;
2022/12/30 01:19:58;;;;;;;4.8;3.2;;;;;;;;;;;;;
2022/12/30 01:22:23;;;;;;;3.7;2.8;;;;;;;;;;;;;
2022/12/30 01:24:49;;;;;;;4.1;2.9;;;;;;;;;;;;;
2022/12/30 01:27:14;;;;;;;4.3;2.9;;;;;;;;;;;;;
2022/12/30 01:29:40;;;;;;;3.8;2.6;;;;;;;;;;;;;
2022/12/30 01:32:05;;;;;;;5.3;3;;;;;;;;;;;;;
2022/12/30 01:34:30;;;;;;;4.3;3.2;;;;;;;;;;;;;
2022/12/30 01:36:56;;;;;;;4.5;2.7;;;;;;;;;;;;;
2022/12/30 01:39:23;;;;;;;3.2;2.6;;;;;;;;;;;;;
2022/12/30 01:41:48;;;;;;;4.1;2.9;;;;;;;;;;;;;
2022/12/30 01:44:13;;;;;;;4.8;3.1;;;;;;;;;;;;;
2022/12/30 01:46:38;;;;;;;6.1;3.3;;;;;;;;;;;;;
2022/12/30 01:49:05;;;;;;;6.1;3.2;;;;;;;;;;;;;
2022/12/30 01:51:30;;;;;;;5.3;3.4;;;;;;;;;;;;;
2022/12/30 01:53:55;;;;;;;5.6;3.4;;;;;;;;;;;;;
2022/12/30 01:56:21;;;;;;;5.6;3.5;;;;;;;;;;;;;
2022/12/30 01:58:46;;;;;;;5.7;3.6;;;;;;;;;;;;;
2022/12/30 02:01:11;;;;;;;5.7;3.8;;;;;;;;;;;;;
2022/12/30 02:03:37;;;;;;;5.9;3.7;;;;;;;;;;;;;
2022/12/30 02:06:02;;;;;;;5.1;3.6;;;;;;;;;;;;;
2022/12/30 02:08:43;;;;;;;6;3.6;;;;;;;;;;;;;
2022/12/30 02:11:08;;;;;;;5.5;3.6;;;;;;;;;;;;;
2022/12/30 02:13:33;;;;;;;6.6;4.1;;;;;;;;;;;;;
2022/12/30 02:16:01;;;;;;;5.2;4.2;;;;;;;;;;;;;
2022/12/30 02:18:26;;;;;;;5.4;3.7;;;;;;;;;;;;;
2022/12/30 02:20:53;;;;;;;3.9;3;;;;;;;;;;;;;
2022/12/30 02:23:18;;;;;;;4.6;3.2;;;;;;;;;;;;;
2022/12/30 02:25:43;;;;;;;4.6;3.2;;;;;;;;;;;;;
2022/12/30 02:28:09;;;;;;;6.3;3.3;;;;;;;;;;;;;
2022/12/30 02:30:34;;;;;;;5.6;3.6;;;;;;;;;;;;;
2022/12/30 02:33:00;;;;;;;4.7;3.2;;;;;;;;;;;;;
2022/12/30 02:35:26;;;;;;;4.5;3.4;;;;;;;;;;;;;
2022/12/30 02:37:51;;;;;;;4.1;3.1;;;;;;;;;;;;;
2022/12/30 02:40:17;;;;;;;4.1;3.1;;;;;;;;;;;;;
2022/12/30 02:45:10;;;;;;;4.5;3.1;;;;;;;;;;;;;
2022/12/30 02:47:35;;;;;;;5.1;3.2;;;;;;;;;;;;;
2022/12/30 02:52:25;;;;;;;4.8;3.1;;;;;;;;;;;;;
2022/12/30 02:54:51;;;;;;;3.5;3;;;;;;;;;;;;;
2022/12/30 02:57:16;;;;;;;5.2;3.3;;;;;;;;;;;;;
2022/12/30 03:05:06;;;;;;;4.8;3.2;;;;;;;;;;;;;
2022/12/30 03:07:31;;;;;;;3.9;2.9;;;;;;;;;;;;;
2022/12/30 03:12:22;;;;;;;4.1;3.2;;;;;;;;;;;;;
2022/12/30 03:14:47;;;;;;;4.2;3.1;;;;;;;;;;;;;
2022/12/30 03:17:13;;;;;;;4.5;2.9;;;;;;;;;;;;;
2022/12/30 03:19:38;;;;;;;5.2;3;;;;;;;;;;;;;
2022/12/30 03:22:03;;;;;;;4;3.2;;;;;;;;;;;;;
2022/12/30 03:27:06;;;;;;;6;3.3;;;;;;;;;;;;;
2022/12/30 03:29:21;;;;;;;5.1;3.3;;;;;;;;;;;;;
2022/12/30 03:31:46;;;;;;;4.5;3.1;;;;;;;;;;;;;
2022/12/30 03:34:11;;;;;;;4.3;3.2;;;;;;;;;;;;;
2022/12/30 03:36:37;;;;;;;5.7;3.4;;;;;;;;;;;;;
2022/12/30 03:39:02;;;;;;;5.2;3.3;;;;;;;;;;;;;
2022/12/30 03:41:29;;;;;;;4.5;3.2;;;;;;;;;;;;;
2022/12/30 03:43:55;;;;;;;5.5;3.2;;;;;;;;;;;;;
2022/12/30 03:46:22;;;;;;;5.6;3.4;;;;;;;;;;;;;
2022/12/30 03:48:47;;;;;;;4.1;3.2;;;;;;;;;;;;;
2022/12/30 03:51:12;;;;;;;4.2;2.7;;;;;;;;;;;;;
2022/12/30 03:53:38;;;;;;;3.3;2.8;;;;;;;;;;;;;
2022/12/30 03:56:03;;;;;;;4.1;3;;;;;;;;;;;;;
2022/12/30 03:58:28;;;;;;;3.6;2.7;;;;;;;;;;;;;
2022/12/30 04:02:38;;;;;;;3.9;2.9;;;;;;;4.08;87.2793;938.7813;;;;
2022/12/30 04:05:07;;;;;;;3.7;2.6;;;;;;;4.06;87.24023;938.7248;;;;
2022/12/30 04:07:33;;;;;;;3.8;2.6;;;;;;;4.07;86.91602;938.6556;;;;
2022/12/30 04:09:57;;;;;;;4.5;2.8;;;;;;;4.1;86.94531;938.7135;;;;
2022/12/30 04:12:24;;;;;;;4.2;2.9;;;;;;;4.08;87.34668;938.7514;;;;
2022/12/30 04:14:49;;;;;;;4.6;2.9;;;;;;;4.03;87.48047;938.7589;;;;
2022/12/30 04:17:17;;;;;;;5.7;2.9;;;;;;;4.03;87.54785;938.7447;;;;
2022/12/30 04:19:42;;;;;;;3.7;2.5;;;;;;;3.97;87.78418;938.7346;;;;
2022/12/30 04:22:09;;;;;;;3.2;2.5;;;;;;;4.01;87.87207;938.7496;;;;
2022/12/30 04:24:34;;;;;;;3.3;2.5;;;;;;;4.06;88.12891;938.7536;;;;
2022/12/30 04:27:04;;;;;;;3.5;2.7;;;;;;;4.07;88.37793;938.7542;;;;
2022/12/30 04:29:36;;;;;;;4.2;3;;;;;;;3.97;88.53906;938.7442;;;;
2022/12/30 04:32:05;;;;;;;4.6;2.8;;;;;;;3.92;88.71875;938.7511;;;;
2022/12/30 04:34:30;;;;;;;3.6;2.6;;;;;;;3.96;88.92871;938.6793;;;;
2022/12/30 04:36:57;;;;;;;3.4;2.9;;;;;;;4;89.27539;938.7294;;;;
2022/12/30 04:39:22;;;;;;;3.6;2.6;;;;;;;4.07;89.24414;938.8267;;;;
2022/12/30 04:42:23;;;;;;;5.4;2.9;;;;;;;4.11;89.18555;938.8059;;;;
2022/12/30 04:44:52;;;;;;;4.9;3.1;;;;;;;4.24;88.95313;938.7656;;;;
2022/12/30 04:47:17;;;;;;;4.3;3;;;;;;;4.36;88.67383;938.7381;;;;
2022/12/30 04:49:45;;;;;;;5.3;3.4;;;;;;;4.43;89.0625;938.7267;;;;
2022/12/30 04:52:10;;;;;;;6.5;3.3;;;;;;;4.5;88.97266;938.709;;;;
2022/12/30 04:54:36;;;;;;;5.5;4;;;;;;;4.55;89.2207;938.6406;;;;
2022/12/30 04:57:01;;;;;;;5;3.6;;;;;;;4.57;89.29395;938.7673;;;;
2022/12/30 04:59:29;;;;;;;6.1;3.7;;;;;;;4.55;89.38867;938.7445;;;;
2022/12/30 05:01:54;;;;;;;5.3;3.6;;;;;;;4.54;89.40039;938.6711;;;;
2022/12/30 05:04:23;;;;;;;7.1;3.7;;;;;;;4.59;89.58984;938.8076;;;;
2022/12/30 05:06:55;;;;;;;6;4.3;;;;;;;4.61;89.75;938.8706;;;;
2022/12/30 05:09:26;;;;;;;7.3;3.9;;;;;;;4.62;90.2041;938.8435;;;;
2022/12/30 05:11:52;;;;;;;5.2;3.9;;;;;;;4.7;90.31152;938.8262;;;;
2022/12/30 05:14:22;;;;;;;4.9;3.8;;;;;;;4.72;90.37305;938.8491;;;;
2022/12/30 05:16:52;;;;;;;4.8;3.2;;;;;;;4.59;89.90527;938.843;;;;
2022/12/30 05:19:17;;;;;;;4.2;3.3;;;;;;;4.54;90.44727;938.8295;;;;
2022/12/30 05:21:49;;;;;;;5.2;3.6;;;;;;;4.61;90.44824;938.7933;;;;
2022/12/30 05:26:50;;;;;;;4.7;3.9;;;;;;;4.64;90.13086;938.7992;;;;
2022/12/30 05:29:17;;;;;;;5.7;4.3;;;;;;;4.64;90.1416;938.7866;;;;
2022/12/30 05:31:42;;;;;;;7;4.8;;;;;;;4.57;90.4873;938.6948;;;;
2022/12/30 05:34:07;;;;;;;11.3;6.4;;;;;;;4.42;91.15234;938.7153;;;;
2022/12/30 05:36:35;;;;;;;11;6.5;;;;;;;4.36;91.72363;938.5742;;;;
2022/12/30 05:39:03;;;;;;;10;5.9;;;;;;;4.39;91.65332;938.5619;;;;
2022/12/30 05:41:33;;;;;;;6.1;3.9;;;;;;;4.38;91.50293;938.5354;;;;
2022/12/30 05:43:58;;;;;;;3.4;2.7;;;;;;;4.34;91.57422;938.5349;;;;
2022/12/30 05:46:27;;;;;;;5.3;3.3;;;;;;;4.29;91.7334;938.5056;;;;
2022/12/30 05:48:52;;;;;;;3.9;3;;;;;;;4.15;92.06152;938.4008;;;;
2022/12/30 05:51:19;;;;;;;4.1;2.7;;;;;;;4.03;92.57813;938.2558;;;;
2022/12/30 05:53:44;;;;;;;3.8;2.8;;;;;;;4.02;92.63965;938.1708;;;;
2022/12/30 05:56:14;;;;;;;4;3;;;;;;;3.95;92.61523;938.21;;;;
2022/12/30 05:58:42;;;;;;;3;2.5;;;;;;;3.88;92.82422;938.2227;;;;
2022/12/30 06:01:07;;;;;;;2.9;2.3;;;;;;;3.72;93.44238;938.2122;;;;
2022/12/30 06:03:35;;;;;;;2.4;2.1;;;;;;;3.42;95.35352;938.2643;;;;
2022/12/30 06:06:00;;;;;;;5.1;2.5;;;;;;;3.3;96.33496;938.2708;;;;
2022/12/30 06:08:29;;;;;;;3.4;2.8;;;;;;;3.44;96.01758;938.1902;;;;
2022/12/30 06:10:54;;;;;;;4;3;;;;;;;3.39;95.66016;938.3014;;;;
2022/12/30 06:13:19;;;;;;;4.1;2.8;;;;;;;3.36;95.6875;938.3045;;;;
2022/12/30 06:15:44;;;;;;;3.6;2.7;;;;;;;3.37;95.63281;938.3354;;;;
2022/12/30 06:18:11;;;;;;;3.3;2.5;;;;;;;3.16;97.13477;938.3512;;;;
2022/12/30 06:20:36;;;;;;;4;2.9;;;;;;;3.1;97.91797;938.356;;;;
2022/12/30 06:23:03;;;;;;;4.1;2.7;;;;;;;3.17;97.7998;938.3201;;;;
2022/12/30 06:25:28;;;;;;;4.2;2.9;;;;;;;3.16;97.96387;938.325;;;;
2022/12/30 06:27:56;;;;;;;4.1;2.7;;;;;;;3.13;98.5293;938.3829;;;;
2022/12/30 06:30:25;;;;;;;4.5;3.2;;;;;;;3.04;99.39551;938.3976;;;;
2022/12/30 06:32:50;;;;;;;4.6;3.6;;;;;;;3.04;99.94531;938.3308;;;;
2022/12/30 06:35:21;;;;;;;6.3;4.3;;;;;;;3.12;99.34668;938.3825;;;;
2022/12/30 06:37:51;;;;;;;5.7;3.7;;;;;;;3.16;99.03027;938.3934;;;;
2022/12/30 06:40:16;;;;;;;6.1;4;;;;;;;3.12;98.57227;938.4;;;;
2022/12/30 06:42:41;;;;;;;4.6;3.4;;;;;;;3.17;98.08008;938.3986;;;;
2022/12/30 06:45:09;;;;;;;10;6.3;;;;;;;3.15;98.30078;938.4688;;;;
2022/12/30 06:47:41;;;;;;;6.9;4.9;;;;;;;3.15;98.69141;938.4001;;;;
2022/12/30 06:50:14;;;;;;;4.8;3.7;;;;;;;3.23;99.41699;938.4915;;;;
2022/12/30 06:52:41;;;;;;;4.8;3.6;;;;;;;3.29;99.44141;938.5889;;;;
2022/12/30 06:55:06;;;;;;;7.1;4.3;;;;;;;3.37;98.63086;938.5289;;;;
2022/12/30 06:57:35;;;;;;;5.7;4.3;;;;;;;3.41;97.58203;938.5895;;;;
2022/12/30 07:00:04;;;;;;;6.1;3.9;;;;;;;3.41;97.05664;938.5544;;;;
2022/12/30 07:02:29;;;;;;;4.8;3.4;;;;;;;3.36;96.88867;938.5753;;;;
2022/12/30 07:04:59;;;;;;;8.4;7.6;;;;;;;3.37;97.03711;938.4913;;;;
2022/12/30 07:07:27;;;;;;;3.1;2.6;;;;;;;3.14;97.90332;938.462;;;;
2022/12/30 07:09:52;;;;;;;2.9;2.6;;;;;;;3.13;98.57422;938.3436;;;;
2022/12/30 07:12:22;;;;;;;5.1;2.3;;;;;;;3.09;99.5293;938.4512;;;;
2022/12/30 07:14:47;;;;;;;2.6;2.3;;;;;;;3.04;100;938.4796;;;;
2022/12/30 07:17:12;;;;;;;2.1;1.9;;;;;;;3.14;100;938.5139;;;;
2022/12/30 07:19:42;;;;;;;11.3;10.4;;;;;;;3.33;100;938.4496;;;;
2022/12/30 07:22:10;;;;;;;3.7;3.4;;;;;;;3.52;100;938.5016;;;;
2022/12/30 07:24:35;;;;;;;2.1;1.8;;;;;;;3.59;100;938.4774;;;;
2022/12/30 07:27:04;;;;;;;1.9;1.7;;;;;;;3.75;99.04688;938.3904;;;;
2022/12/30 07:29:29;;;;;;;3.3;2.6;;;;;;;3.78;98.04004;938.5349;;;;
2022/12/30 07:31:59;;;;;;;5.2;3.5;;;;;;;3.85;97.14551;938.5022;;;;
2022/12/30 07:34:29;;;;;;;4.9;3.4;;;;;;;3.91;96.24805;938.5513;;;;
2022/12/30 07:36:55;;;;;;;5.1;3.1;;;;;;;3.81;96.27051;938.5289;;;;
2022/12/30 07:39:25;;;;;;;4.6;2.9;;;;;;;3.82;96.52148;938.531;;;;
2022/12/30 07:41:56;;;;;;;9.3;6;;;;;;;3.85;96.00879;938.5027;;;;
2022/12/30 07:44:21;;;;;;;10.5;6.2;;;;;;;3.82;96.12598;938.6167;;;;
2022/12/30 07:46:49;;;;;;;8.8;5.6;;;;;;;3.83;95.82422;938.5461;;;;
2022/12/30 07:49:14;;;;;;;9.5;6.4;;;;;;;3.8;95.74219;938.5533;;;;
2022/12/30 07:51:45;;;;;;;7.2;4.9;;;;;;;3.77;95.91602;938.5345;;;;
2022/12/30 07:54:13;;;;;;;7.3;5;;;;;;;3.81;95.77539;938.4769;;;;
2022/12/30 07:56:38;;;;;;;7.8;4.9;;;;;;;3.84;95.64844;938.497;;;;
2022/12/30 07:59:06;;;;;;;4.8;3.6;;;;;;;3.95;95.24609;938.4739;;;;
2022/12/30 08:01:31;;;;;;;4.1;3.3;;;;;;;3.91;95.29199;938.508;;;;
2022/12/30 08:04:03;;;;;;;6.3;4.6;;;;;;;3.83;95.8584;938.5036;;;;
2022/12/30 08:06:28;;;;;;;5.3;4.1;;;;;;;3.81;96.02246;938.5282;;;;
2022/12/30 08:08:53;;;;;;;4.1;3.4;;;;;;;3.75;96.30273;938.666;;;;
2022/12/30 08:11:18;;;;;;;5.2;3.3;;;;;;;3.79;96.17773;938.6156;;;;
2022/12/30 08:13:44;;;;;;;4.9;3.3;;;;;;;3.9;95.67383;938.6047;;;;
2022/12/30 08:16:09;;;;;;;5.1;3.6;;;;;;;3.91;95.26953;938.6576;;;;
2022/12/30 08:18:35;;;;;;;5.2;4;;;;;;;3.79;95.65918;938.6208;;;;
2022/12/30 08:21:01;;;;;;;6.8;4.3;;;;;;;3.92;95.7998;938.5965;;;;
2022/12/30 08:23:28;;;;;;;8.1;6.1;;;;;;;4.06;95.03418;938.6609;;;;
2022/12/30 08:25:53;;;;;;;7;5.8;;;;;;;4.1;94.70508;938.7653;;;;
2022/12/30 08:28:23;;;;;;;6.5;4.9;;;;;;;4.1;94.4707;938.7126;;;;
2022/12/30 08:30:48;;;;;;;6.1;4.6;;;;;;;4.19;94.27637;938.788;;;;
2022/12/30 08:33:16;;;;;;;6.1;4.1;;;;;;;4.22;94.04688;938.7061;;;;
2022/12/30 08:35:41;;;;;;;4.9;3.7;;;;;;;4.37;93.89844;938.6328;;;;
2022/12/30 08:38:09;;;;;;;5.1;3.7;;;;;;;4.54;92.91113;938.6496;;;;
2022/12/30 08:40:35;;;;;;;3.9;3.3;;;;;;;4.64;92.5166;938.6831;;;;
2022/12/30 08:43:04;;;;;;;5.4;3.1;;;;;;;4.74;92.35938;938.6809;;;;
2022/12/30 08:45:35;;;;;;;4.3;3.3;;;;;;;4.78;91.43262;938.5236;;;;
2022/12/30 08:48:01;;;;;;;4.6;3.2;;;;;;;4.81;91.64063;938.5044;;;;
2022/12/30 08:50:27;;;;;;;4.2;3.4;;;;;;;4.92;91.41602;938.5731;;;;
2022/12/30 08:52:52;;;;;;;4.4;4;;;;;;;4.91;91.00879;938.5833;;;;
2022/12/30 08:55:21;;;;;;;4.3;3.4;;;;;;;4.95;91.33398;938.5055;;;;
2022/12/30 08:57:46;;;;;;;5.4;3.8;;;;;;;5.08;90.83105;938.5185;;;;
2022/12/30 09:00:12;;;;;;;6;4.3;;;;;;;5.14;90.08691;938.5313;;;;
2022/12/30 09:02:38;;;;;;;6.2;3.8;;;;;;;5.13;90.2793;938.5017;;;;
2022/12/30 09:05:07;;;;;;;4.3;3;;;;;;;5.29;89.58984;938.4461;;;;
2022/12/30 09:07:35;;;;;;;4.4;2.9;;;;;;;5.42;88.97266;938.3797;;;;
2022/12/30 09:10:00;;;;;;;4.4;3.1;;;;;;;5.49;89.13672;938.3969;;;;
2022/12/30 09:12:28;;;;;;;3.2;1.9;;;;;;;5.63;86.34473;938.3419;;;;
2022/12/30 09:14:53;;;;;;;3.1;2;;;;;;;5.83;86.42773;938.3066;;;;
2022/12/30 09:17:24;;;;;;;2.3;1.7;;;;;;;5.73;85.04199;938.3311;;;;
2022/12/30 09:20:02;;;;;;;2.4;2.1;;;;;;;5.9;84.99707;938.2556;;;;
2022/12/30 09:22:27;;;;;;;5.2;3.7;;;;;;;5.87;85.9043;938.253;;;;
2022/12/30 09:24:56;;;;;;;9.1;5.3;;;;;;;5.69;87.91309;938.3489;;;;
2022/12/30 09:27:21;;;;;;;9.8;6.4;;;;;;;5.6;88.44629;938.3611;;;;
2022/12/30 09:29:51;;;;;;;10.6;7.2;;;;;;;5.68;88.80176;938.1986;;;;
2022/12/30 09:32:16;;;;;;;10.8;7;;;;;;;5.66;88.31445;938.2218;;;;
2022/12/30 09:35:03;;;;;;;5.5;4.1;;;;;;;5.64;88.34277;938.12;;;;
2022/12/30 09:37:28;;;;;;;5.3;3.7;;;;;;;5.55;88.87695;938.1347;;;;
2022/12/30 09:39:57;;;;;;;6.5;5;;;;;;;5.56;88.88086;938.007;;;;
2022/12/30 09:44:48;;;;;;;5.4;3.8;;;;;;;5.63;88.92773;937.8498;;;;
2022/12/30 09:47:13;;;;;;;5.8;4.4;;;;;;;5.66;88.4707;937.7692;;;;
2022/12/30 09:49:38;;;;;;;6.2;4.1;;;;;;;5.67;88.26953;937.7622;;;;
2022/12/30 09:52:03;;;;;;;5;3.2;;;;;;;5.73;88.16016;937.8051;;;;
2022/12/30 09:54:28;;;;;;;5.6;3.2;;;;;;;5.89;88.01074;937.6032;;;;
2022/12/30 09:56:57;;;;;;;4.5;2.8;;;;;;;5.93;86.83203;937.5184;;;;
2022/12/30 09:59:18;;;;;;;4.3;2.4;;;;;;;5.96;86.71289;937.5485;;;;
2022/12/30 10:01:44;;;;;;;5;3;;;;;;;5.95;87.38965;937.5323;;;;
2022/12/30 10:04:09;;;;;;;4.5;2.4;;;;;;;6.05;85.92969;937.4056;;;;
2022/12/30 10:06:37;;;;;;;3.6;2.6;;;;;;;6.17;86.03418;937.2955;;;;
2022/12/30 10:09:02;;;;;;;4;2.8;;;;;;;6.21;85.41797;937.2429;;;;
2022/12/30 10:11:28;;;;;;;4.2;2.7;;;;;;;6.33;85.23926;937.2569;;;;
2022/12/30 10:13:54;;;;;;;3.6;2.8;;;;;;;6.46;85.4248;937.2372;;;;
2022/12/30 10:16:20;;;;;;;3;2.1;;;;;;;6.53;83.49316;937.1566;;;;
2022/12/30 10:18:45;;;;;;;3.3;2.1;;;;;;;6.75;83.63574;937.1071;;;;
2022/12/30 10:21:11;;;;;;;3.4;2.3;;;;;;;6.83;83.35938;937.0728;;;;
2022/12/30 10:24:04;;;;;;;4.5;3;;;;;;;6.94;83.24414;937.0236;;;;
2022/12/30 10:26:29;;;;;;;4.1;2.9;;;;;;;7.09;82.2207;936.9398;;;;
2022/12/30 10:28:56;;;;;;;5.5;3.2;;;;;;;7.09;82.46973;936.9827;;;;
2022/12/30 10:31:21;;;;;;;3.4;2.6;;;;;;;7;82.49805;936.9339;;;;
2022/12/30 10:34:08;;;;;;;2.8;1.8;;;;;;;6.97;80.69043;936.9656;;;;
2022/12/30 10:36:33;;;;;;;2;1.7;;;;;;;7.06;81.88672;936.9448;;;;
2022/12/30 10:38:58;;;;;;;2.6;1.8;;;;;;;7.25;81.71777;936.8491;;;;
2022/12/30 10:41:27;;;;;;;2.9;2;;;;;;;7.35;80.37598;936.6688;;;;
2022/12/30 10:43:52;;;;;;;2.3;1.9;;;;;;;7.37;79.67871;936.6091;;;;
2022/12/30 10:46:34;;;;;;;3.2;2.4;;;;;;;7.47;79.56152;936.5636;;;;
2022/12/30 10:49:03;;;;;;;3.6;2.6;;;;;;;7.61;79.86035;936.576;;;;
2022/12/30 10:51:28;;;;;;;3.4;2.5;;;;;;;7.75;78.42188;936.4936;;;;
2022/12/30 10:53:58;;;;;;;2.3;1.9;;;;;;;7.88;78.35449;936.4572;;;;
2022/12/30 10:56:29;;;;;;;1.8;1.5;;;;;;;8.02;76.30371;936.4867;;;;
2022/12/30 10:58:54;;;;;;;2.9;1.8;;;;;;;8.19;75.00488;936.3958;;;;
2022/12/30 11:01:20;;;;;;;2.8;1.8;;;;;;;8.29;73.35254;936.3706;;;;
2022/12/30 11:03:44;;;;;;;1.8;1.3;;;;;;;8.39;70.87012;936.3049;;;;
2022/12/30 11:06:12;;;;;;;2.6;1.8;;;;;;;8.57;71.25195;936.2378;;;;
2022/12/30 11:08:37;;;;;;;1.9;1.7;;;;;;;8.65;70.41211;936.2431;;;;
2022/12/30 11:11:02;;;;;;;2.9;1.7;;;;;;;8.76;68.47363;936.1088;;;;
2022/12/30 11:15:57;;;;;;;3.4;2.3;;;;;;;8.87;69.03711;936.1541;;;;
2022/12/30 11:18:22;;;;;;;3.1;2.2;;;;;;;8.89;69.39258;936.1209;;;;
2022/12/30 11:20:47;;;;;;;3.7;2.5;;;;;;;8.9;69.83887;936.0822;;;;
2022/12/30 11:23:17;;;;;;;4.2;2.3;;;;;;;8.97;70.72656;935.9839;;;;
2022/12/30 11:25:45;;;;;;;3.1;1.9;;;;;;;9.1;71.55566;935.9991;;;;
2022/12/30 11:28:10;;;;;;;2.6;1.6;;;;;;;9.08;69.41309;935.9807;;;;
2022/12/30 11:30:38;;;;;;;1.5;1.4;;;;;;;9.08;68.85547;935.9258;;;;
2022/12/30 11:33:03;;;;;;;4.1;2;;;;;;;9.13;70.41211;935.8525;;;;
2022/12/30 11:35:31;;;;;;;6.9;3;;;;;;;9.18;70.08887;935.8244;;;;
2022/12/30 11:37:56;;;;;;;4.1;2.2;;;;;;;9.32;68.18848;935.8039;;;;
2022/12/30 11:40:29;;;;;;;2.2;1.5;;;;;;;9.4;65.66211;935.7713;;;;
2022/12/30 11:43:02;;;;;;;6.6;1.7;;;;;;;9.53;61.72852;935.7227;;;;
2022/12/30 11:45:32;;;;;;;8.4;1.9;;;;;;;9.73;62.31543;935.6786;;;;
2022/12/30 11:48:02;;;;;;;3.4;1.3;;;;;;;9.89;61.5293;935.5919;;;;
2022/12/30 11:50:29;;;;;;;5.2;1.6;;;;;;;9.96;60.22656;935.5606;;;;
2022/12/30 11:53:01;;;;;;;3;2;;;;;;;10.04;58.2666;935.4732;;;;
2022/12/30 11:55:26;;;;;;;6.7;2.6;;;;;;;10.05;59.93262;935.3818;;;;
2022/12/30 11:57:55;;;;;;;4.9;2;;;;;;;10.1;60.24707;935.4497;;;;
2022/12/30 12:00:19;;;;;;;2.2;1.4;;;;;;;10.2;59.56445;935.4503;;;;
2022/12/30 12:02:45;;;;;;;4.8;2.3;;;;;;;10.28;59.79297;935.3814;;;;
2022/12/30 12:05:10;;;;;;;7.2;2.1;;;;;;;10.26;60.16699;935.433;;;;
2022/12/30 12:07:37;;;;;;;4.3;2;;;;;;;10.37;59.66797;935.3644;;;;
2022/12/30 12:10:05;;;;;;;3.7;1.8;;;;;;;10.61;58.97168;935.2667;;;;
2022/12/30 12:12:34;;;;;;;1.5;1.1;;;;;;;10.59;58.29395;935.2789;;;;
2022/12/30 12:14:59;;;;;;;3;1.4;;;;;;;10.69;58.64941;935.3441;;;;
2022/12/30 12:17:33;;;;;;;3.8;2.1;;;;;;;10.85;59.36914;935.306;;;;
2022/12/30 12:20:35;;;;;;;6;1.9;;;;;;;10.9;58.30078;935.2902;;;;
2022/12/30 12:23:00;;;;;;;1.9;1.4;;;;;;;11.15;57.15723;935.2363;;;;
2022/12/30 12:25:25;;;;;;;3.9;1.7;;;;;;;11.23;57.8418;935.2048;;;;
2022/12/30 12:27:51;;;;;;;3.2;1.7;;;;;;;11.3;56.8457;935.2527;;;;
2022/12/30 12:30:16;;;;;;;1.9;1.3;;;;;;;11.38;55.88379;935.1428;;;;
2022/12/30 12:32:44;;;;;;;2.7;1.2;;;;;;;11.42;56.48535;935.0969;;;;
2022/12/30 12:35:09;;;;;;;7.9;2.3;;;;;;;11.39;56.78809;935.0647;;;;
2022/12/30 12:37:37;;;;;;;1.8;1.2;;;;;;;11.47;56.98242;935.168;;;;
2022/12/30 12:40:05;;;;;;;9.8;2.1;;;;;;;11.62;57.4834;935.1404;;;;
2022/12/30 12:42:30;;;;;;;12.9;2.3;;;;;;;11.65;56.28516;935.1325;;;;
2022/12/30 12:44:55;;;;;;;8.9;2.6;;;;;;;11.71;55.71973;935.197;;;;
2022/12/30 12:47:21;;;;;;;6.6;1.8;;;;;;;11.82;54.68164;935.2415;;;;
2022/12/30 12:49:46;;;;;;;5.6;1.6;;;;;;;11.93;54.41992;935.1983;;;;
2022/12/30 12:52:11;;;;;;;8.9;1.9;;;;;;;11.93;54.74121;935.235;;;;
2022/12/30 12:54:36;;;;;;;4.4;2.1;;;;;;;12.07;53.75;935.2726;;;;
2022/12/30 12:57:01;;;;;;;1.9;1.6;;;;;;;11.98;52.79883;935.2668;;;;
2022/12/30 12:59:28;;;;;;;3.2;1.6;;;;;;;12.01;52.80371;935.2799;;;;
2022/12/30 13:01:54;;;;;;;4.2;1.7;;;;;;;12.14;52.30371;935.2814;;;;
2022/12/30 13:04:19;;;;;;;2.8;1.6;;;;;;;12.1;52.79199;935.3062;;;;
2022/12/30 13:06:44;;;;;;;6;2.2;;;;;;;12.14;53.5293;935.2869;;;;
2022/12/30 13:09:11;;;;;;;6.9;2.8;;;;;;;12.2;55.85254;935.314;;;;
2022/12/30 13:11:37;;;;;;;7.3;2.9;;;;;;;12.15;57.31348;935.2645;;;;
2022/12/30 13:14:03;;;;;;;5.9;2.8;;;;;;;11.96;58.75391;935.3196;;;;
2022/12/30 13:16:32;;;;;;;6.2;2.5;;;;;;;11.89;57.48438;935.3084;;;;
2022/12/30 13:18:58;;;;;;;3.6;2.2;;;;;;;11.8;56.40723;935.285;;;;
2022/12/30 13:21:23;;;;;;;5;2.3;;;;;;;11.5;57.03223;935.1456;;;;
2022/12/30 13:23:48;;;;;;;3;1.9;;;;;;;11.44;56.66992;935.1432;;;;
2022/12/30 13:26:13;;;;;;;8.7;2.3;;;;;;;11.41;57.54785;935.2022;;;;
2022/12/30 13:28:42;;;;;;;10.8;3.1;;;;;;;11.54;57.35742;935.2413;;;;
2022/12/30 13:31:09;;;;;;;12.1;3.6;;;;;;;11.76;56.66602;935.252;;;;
2022/12/30 13:33:34;;;;;;;5.1;3;;;;;;;11.7;55.91504;935.2927;;;;
2022/12/30 13:36:05;;;;;;;4.2;2.7;;;;;;;11.84;54.96875;935.2191;;;;
2022/12/30 13:38:32;;;;;;;6.3;4.4;;;;;;;11.99;55.12598;935.2062;;;;
2022/12/30 13:40:57;;;;;;;8.3;4.6;;;;;;;12.05;55.17871;935.1235;;;;
2022/12/30 13:43:22;;;;;;;5;2.6;;;;;;;11.9;54.63379;935.0826;;;;
2022/12/30 13:45:53;;;;;;;5.6;2.8;;;;;;;11.63;54.38184;935.0726;;;;
2022/12/30 13:48:15;;;;;;;7.5;3.6;;;;;;;11.69;55.91309;935.032;;;;
2022/12/30 13:50:42;;;;;;;8.2;3.8;;;;;;;11.72;56.21484;935.0231;;;;
2022/12/30 13:53:07;;;;;;;9.6;4.3;;;;;;;11.62;55.21582;935.0488;;;;
2022/12/30 13:55:33;;;;;;;7.8;4.1;;;;;;;11.53;56.21289;935.0148;;;;
2022/12/30 13:57:57;;;;;;;8.5;4.3;;;;;;;11.46;56.1582;934.9933;;;;
2022/12/30 14:03:36;;;;;;;14.9;6.6;;;;;;;11.34;57.05664;934.9674;;;;
2022/12/30 14:06:01;;;;;;;20;6.5;;;;;;;11.25;58.24512;934.9753;;;;
2022/12/30 14:08:26;;;;;;;10.4;3.9;;;;;;;11.09;61.79199;934.9517;;;;
2022/12/30 14:10:52;;;;;;;14.8;6.5;;;;;;;10.75;63.1709;934.9144;;;;
2022/12/30 14:13:20;;;;;;;11.4;4.1;;;;;;;10.45;63.68652;934.9066;;;;
2022/12/30 14:15:46;;;;;;;13.3;5.6;;;;;;;10.46;64.34863;934.8143;;;;
2022/12/30 14:18:11;;;;;;;10.9;5.5;;;;;;;10.27;64.26465;934.8649;;;;
2022/12/30 14:20:41;;;;;;;14.5;7.9;;;;;;;10.15;64.20117;934.8582;;;;
2022/12/30 14:23:06;;;;;;;12.3;7.1;;;;;;;10.1;64.64941;934.8865;;;;
2022/12/30 14:25:33;;;;;;;11.8;6.7;;;;;;;9.8;65.88086;934.8856;;;;
2022/12/30 14:27:58;;;;;;;14.2;6.5;;;;;;;9.68;66.95605;934.8657;;;;
2022/12/30 14:30:23;;;;;;;15.1;8.7;;;;;;;9.57;67.65723;934.7558;;;;
2022/12/30 14:32:54;;;;;;;12.3;7.9;;;;;;;9.35;67.30273;934.8261;;;;
2022/12/30 14:35:22;;;;;;;12.5;7.5;;;;;;;9.2;67.48535;934.7324;;;;
2022/12/30 14:38:11;;;;;;;10.9;7.1;;;;;;;9.11;67.63086;934.6744;;;;
2022/12/30 14:40:36;;;;;;;16.3;7.3;;;;;;;9.21;67.57813;934.6188;;;;
2022/12/30 14:43:01;;;;;;;18.5;8.1;;;;;;;9.34;68.04297;934.6122;;;;
2022/12/30 14:45:28;;;;;;;12.3;7.5;;;;;;;9.24;68.85742;934.7449;;;;
2022/12/30 14:47:53;;;;;;;11.7;7.7;;;;;;;9.03;69.91797;934.673;;;;
2022/12/30 14:50:23;;;;;;;11.7;6.9;;;;;;;8.98;70.1709;934.7428;;;;
2022/12/30 14:52:48;;;;;;;10.4;6.9;;;;;;;8.97;69.8623;934.7625;;;;
2022/12/30 14:55:14;;;;;;;12.9;7.2;;;;;;;8.97;70.27148;934.764;;;;
2022/12/30 14:57:39;;;;;;;13.9;7.6;;;;;;;8.93;70.59375;934.8209;;;;
2022/12/30 15:00:04;;;;;;;22.7;11.5;;;;;;;8.81;72.05469;934.8833;;;;
2022/12/30 15:02:31;;;;;;;11.6;7;;;;;;;8.8;72.33594;934.9146;;;;
2022/12/30 15:04:56;;;;;;;8.7;6;;;;;;;8.82;72.12305;934.8094;;;;
2022/12/30 15:07:21;;;;;;;12.6;6.8;;;;;;;8.63;71.9209;934.9175;;;;
2022/12/30 15:09:46;;;;;;;10.5;5.7;;;;;;;8.53;71.7793;935.0009;;;;
2022/12/30 15:12:11;;;;;;;11.8;7.5;;;;;;;8.42;71.48828;934.9355;;;;
2022/12/30 15:14:36;;;;;;;11.9;7;;;;;;;8.46;72.10742;934.897;;;;
2022/12/30 15:17:02;;;;;;;38;16.7;;;;;;;8.52;72.20898;934.9517;;;;
2022/12/30 15:19:31;;;;;;;19.5;10.1;;;;;;;8.55;72.46387;935.0012;;;;
2022/12/30 15:22:00;;;;;;;16.6;8.5;;;;;;;8.46;72.6875;934.9914;;;;
2022/12/30 15:24:26;;;;;;;11.6;7.3;;;;;;;8.29;71.93262;935.0499;;;;
2022/12/30 15:26:50;;;;;;;20;7.7;;;;;;;8.29;72.73926;935.0784;;;;
2022/12/30 15:29:19;;;;;;;14.1;7.4;;;;;;;8.39;72.82422;934.9514;;;;
2022/12/30 15:31:44;;;;;;;16.2;9;;;;;;;8.36;73.85352;934.9194;;;;
2022/12/30 15:34:09;;;;;;;16.4;11;;;;;;;8.35;73.94238;934.9097;;;;
2022/12/30 15:36:37;;;;;;;15.8;7.9;;;;;;;8.3;73.65918;934.8818;;;;
2022/12/30 15:42:00;;;;;;;18.9;9.2;;;;;;;8.23;74.22754;934.8588;;;;
2022/12/30 15:44:27;;;;;;;18.4;9;;;;;;;8.23;74.44336;934.9119;;;;
2022/12/30 15:46:52;;;;;;;15.1;9.1;;;;;;;8.21;74.50879;934.9316;;;;
2022/12/30 15:49:18;;;;;;;26.9;14.1;;;;;;;8.08;75.20215;935.0422;;;;
2022/12/30 15:51:42;;;;;;;18.1;11.3;;;;;;;8.11;75.12695;935.1892;;;;
2022/12/30 15:54:07;;;;;;;18.5;11.7;;;;;;;8.18;74.14063;935.3059;;;;
2022/12/30 15:56:36;;;;;;;21.3;10.9;;;;;;;8.18;73.90234;935.3265;;;;
2022/12/30 15:59:02;;;;;;;18.9;10.9;;;;;;;8.3;73.07031;935.3038;;;;
2022/12/30 16:01:31;;;;;;;19.6;10.5;;;;;;;8.43;72.7627;935.3528;;;;
2022/12/30 16:03:56;;;;;;;16.8;9.8;;;;;;;8.56;72.79688;935.3275;;;;
2022/12/30 16:06:22;;;;;;;20.8;11.8;;;;;;;8.56;74;935.3997;;;;
2022/12/30 16:09:01;;;;;;;21.6;11.7;;;;;;;8.45;74.26563;935.4308;;;;
2022/12/30 16:11:30;;;;;;;17.7;10.3;;;;;;;8.39;73.75586;935.5059;;;;
2022/12/30 16:13:55;;;;;;;13.9;9.5;;;;;;;8.41;73.56543;935.5363;;;;
2022/12/30 16:16:22;;;;;;;17.8;11.4;;;;;;;8.39;73.58594;935.5361;;;;
2022/12/30 16:18:48;;;;;;;17.7;11.5;;;;;;;8.38;73.67285;935.5645;;;;
2022/12/30 16:21:13;;;;;;;14.5;9;;;;;;;8.37;73.20605;935.6176;;;;
2022/12/30 16:23:50;;;;;;;15.4;9.5;;;;;;;8.36;74.05664;935.519;;;;
2022/12/30 16:26:21;;;;;;;14.6;8.4;;;;;;;8.39;72.7334;935.5711;;;;
2022/12/30 16:28:47;;;;;;;12.6;7.9;;;;;;;8.43;72.97852;935.6298;;;;
2022/12/30 16:31:11;;;;;;;12.4;6.9;;;;;;;8.37;72.11523;935.6613;;;;
2022/12/30 16:33:36;;;;;;;9.5;5.2;;;;;;;8.38;72.20801;935.6914;;;;